sensor_id;sensor_type;location;lat;lon;timestamp;pressure;altitude;pressure_sealevel;temperature;humidity
30339;BME280;795;49.296;11.348;2023-04-02T00:06:36;95508.47;;;7.06;100.00
30339;BME280;795;49.296;11.348;2023-04-02T00:11:48;95393.22;;;6.31;100.00
30339;BME280;795;49.296;11.348;2023-04-02T00:14:31;95525.47;;;7.13;100.00
30339;BME280;795;49.296;11.348;2023-04-02T00:17:04;95528.16;;;7.13;100.00
30339;BME280;795;49.296;11.348;2023-04-02T00:19:43;95492.31;;;6.91;100.00
30339;BME280;795;49.296;11.348;2023-04-02T00:22:26;95541.66;;;7.11;100.00
30339;BME280;795;49.296;11.348;2023-04-02T00:24:56;95413.06;;;6.37;100.00
30339;BME280;795;49.296;11.348;2023-04-02T00:27:23;95534.97;;;7.15;100.00
30339;BME280;795;49.296;11.348;2023-04-02T00:29:55;95536.00;;;7.14;100.00
30339;BME280;795;49.296;11.348;2023-04-02T00:32:33;95497.00;;;6.81;100.00
30339;BME280;795;49.296;11.348;2023-04-02T00:35:12;95437.72;;;6.39;100.00
30339;BME280;795;49.296;11.348;2023-04-02T00:37:43;95519.69;;;6.85;100.00
30339;BME280;795;49.296;11.348;2023-04-02T00:40:27;95496.53;;;6.78;100.00
30339;BME280;795;49.296;11.348;2023-04-02T00:42:59;95476.19;;;6.60;100.00
30339;BME280;795;49.296;11.348;2023-04-02T00:45:35;95502.00;;;6.76;100.00
30339;BME280;795;49.296;11.348;2023-04-02T00:48:36;95561.84;;;7.06;100.00
30339;BME280;795;49.296;11.348;2023-04-02T00:51:30;95567.38;;;7.04;100.00
30339;BME280;795;49.296;11.348;2023-04-02T00:54:05;95481.66;;;6.59;100.00
30339;BME280;795;49.296;11.348;2023-04-02T00:56:47;95560.34;;;7.03;100.00
30339;BME280;795;49.296;11.348;2023-04-02T00:59:34;95562.34;;;7.01;100.00
30339;BME280;795;49.296;11.348;2023-04-02T01:05:01;95562.84;;;7.05;100.00
30339;BME280;795;49.296;11.348;2023-04-02T01:13:40;95573.19;;;7.08;100.00
30339;BME280;795;49.296;11.348;2023-04-02T01:24:37;95538.19;;;6.87;100.00
30339;BME280;795;49.296;11.348;2023-04-02T01:27:23;95523.34;;;6.68;100.00
30339;BME280;795;49.296;11.348;2023-04-02T01:29:57;95562.03;;;6.96;100.00
30339;BME280;795;49.296;11.348;2023-04-02T01:32:29;95580.69;;;6.96;100.00
30339;BME280;795;49.296;11.348;2023-04-02T01:34:57;95586.69;;;6.98;100.00
30339;BME280;795;49.296;11.348;2023-04-02T01:37:49;95533.34;;;6.58;100.00
30339;BME280;795;49.296;11.348;2023-04-02T01:40:37;95589.03;;;6.93;100.00
30339;BME280;795;49.296;11.348;2023-04-02T01:43:53;95582.03;;;6.84;100.00
30339;BME280;795;49.296;11.348;2023-04-02T01:46:32;95597.88;;;6.94;100.00
30339;BME280;795;49.296;11.348;2023-04-02T01:49:15;95589.53;;;6.81;100.00
30339;BME280;795;49.296;11.348;2023-04-02T01:51:51;95548.00;;;6.62;100.00
30339;BME280;795;49.296;11.348;2023-04-02T01:54:21;95604.06;;;6.94;100.00
30339;BME280;795;49.296;11.348;2023-04-02T01:56:50;95588.34;;;6.83;100.00
30339;BME280;795;49.296;11.348;2023-04-02T01:59:22;95552.00;;;6.58;100.00
30339;BME280;795;49.296;11.348;2023-04-02T02:02:10;95614.53;;;6.96;100.00
30339;BME280;795;49.296;11.348;2023-04-02T02:04:39;95625.06;;;6.97;100.00
30339;BME280;795;49.296;11.348;2023-04-02T02:07:18;95533.19;;;6.51;100.00
30339;BME280;795;49.296;11.348;2023-04-02T02:09:48;95620.06;;;7.02;100.00
30339;BME280;795;49.296;11.348;2023-04-02T02:12:15;95578.03;;;6.80;100.00
30339;BME280;795;49.296;11.348;2023-04-02T02:14:49;95628.88;;;7.03;100.00
30339;BME280;795;49.296;11.348;2023-04-02T02:17:26;95625.56;;;6.85;100.00
30339;BME280;795;49.296;11.348;2023-04-02T02:20:00;95610.53;;;6.84;100.00
30339;BME280;795;49.296;11.348;2023-04-02T02:22:36;95599.53;;;6.79;100.00
30339;BME280;795;49.296;11.348;2023-04-02T02:25:19;95632.72;;;7.00;100.00
30339;BME280;795;49.296;11.348;2023-04-02T02:28:25;95642.41;;;7.01;100.00
30339;BME280;795;49.296;11.348;2023-04-02T02:31:06;95615.03;;;6.91;100.00
30339;BME280;795;49.296;11.348;2023-04-02T02:33:48;95580.19;;;6.68;100.00
30339;BME280;795;49.296;11.348;2023-04-02T02:39:30;95590.84;;;6.60;100.00
30339;BME280;795;49.296;11.348;2023-04-02T02:42:26;95645.91;;;6.94;100.00
30339;BME280;795;49.296;11.348;2023-04-02T02:44:57;95615.03;;;6.67;100.00
30339;BME280;795;49.296;11.348;2023-04-02T02:47:32;95609.84;;;6.57;100.00
30339;BME280;795;49.296;11.348;2023-04-02T02:50:06;95656.41;;;6.95;100.00
30339;BME280;795;49.296;11.348;2023-04-02T02:52:37;95669.56;;;6.89;100.00
30339;BME280;795;49.296;11.348;2023-04-02T02:55:21;95563.28;;;6.28;100.00
30339;BME280;795;49.296;11.348;2023-04-02T02:57:57;95671.75;;;6.93;100.00
30339;BME280;795;49.296;11.348;2023-04-02T03:00:30;95628.84;;;6.62;100.00
30339;BME280;795;49.296;11.348;2023-04-02T03:02:57;95658.06;;;6.80;100.00
30339;BME280;795;49.296;11.348;2023-04-02T03:05:27;95686.41;;;6.89;100.00
30339;BME280;795;49.296;11.348;2023-04-02T03:07:59;95677.44;;;6.90;100.00
30339;BME280;795;49.296;11.348;2023-04-02T03:10:57;95681.41;;;6.86;100.00
30339;BME280;795;49.296;11.348;2023-04-02T03:13:31;95683.75;;;6.89;100.00
30339;BME280;795;49.296;11.348;2023-04-02T03:16:26;95665.88;;;6.74;100.00
30339;BME280;795;49.296;11.348;2023-04-02T03:22:13;95665.88;;;6.65;100.00
30339;BME280;795;49.296;11.348;2023-04-02T03:25:23;95697.59;;;6.85;100.00
30339;BME280;795;49.296;11.348;2023-04-02T03:28:01;95596.59;;;6.24;100.00
30339;BME280;795;49.296;11.348;2023-04-02T03:30:39;95701.91;;;6.86;100.00
30339;BME280;795;49.296;11.348;2023-04-02T03:33:26;95675.16;;;6.61;100.00
30339;BME280;795;49.296;11.348;2023-04-02T03:36:24;95705.59;;;6.85;100.00
30339;BME280;795;49.296;11.348;2023-04-02T03:41:47;95664.31;;;6.55;100.00
30339;BME280;795;49.296;11.348;2023-04-02T03:44:38;95667.00;;;6.55;100.00
30339;BME280;795;49.296;11.348;2023-04-02T03:47:31;95712.13;;;6.90;100.00
30339;BME280;795;49.296;11.348;2023-04-02T03:50:06;95585.06;;;6.07;100.00
30339;BME280;795;49.296;11.348;2023-04-02T03:52:37;95667.34;;;6.60;100.00
30339;BME280;795;49.296;11.348;2023-04-02T03:55:21;95725.44;;;6.90;100.00
30339;BME280;795;49.296;11.348;2023-04-02T04:01:26;95732.63;;;6.90;100.00
30339;BME280;795;49.296;11.348;2023-04-02T04:04:07;95737.09;;;6.89;100.00
30339;BME280;795;49.296;11.348;2023-04-02T04:06:44;95735.41;;;6.88;100.00
30339;BME280;795;49.296;11.348;2023-04-02T04:09:34;95697.53;;;6.60;100.00
30339;BME280;795;49.296;11.348;2023-04-02T04:12:32;95718.06;;;6.68;100.00
30339;BME280;795;49.296;11.348;2023-04-02T04:15:31;95753.78;;;6.91;100.00
30339;BME280;795;49.296;11.348;2023-04-02T04:21:24;95763.78;;;6.89;100.00
30339;BME280;795;49.296;11.348;2023-04-02T04:24:26;95747.44;;;6.84;100.00
30339;BME280;795;49.296;11.348;2023-04-02T04:27:05;95701.63;;;6.47;100.00
30339;BME280;795;49.296;11.348;2023-04-02T04:30:26;95781.47;;;6.90;100.00
30339;BME280;795;49.296;11.348;2023-04-02T04:33:11;95770.94;;;6.89;100.00
30339;BME280;795;49.296;11.348;2023-04-02T04:35:53;95732.84;;;6.62;100.00
30339;BME280;795;49.296;11.348;2023-04-02T04:38:35;95735.97;;;6.50;100.00
30339;BME280;795;49.296;11.348;2023-04-02T04:41:17;95779.78;;;6.89;100.00
30339;BME280;795;49.296;11.348;2023-04-02T04:44:44;95780.13;;;6.86;100.00
30339;BME280;795;49.296;11.348;2023-04-02T04:47:25;95786.97;;;6.89;100.00
30339;BME280;795;49.296;11.348;2023-04-02T04:50:14;95741.63;;;6.47;100.00
30339;BME280;795;49.296;11.348;2023-04-02T04:52:43;95786.97;;;6.89;100.00
30339;BME280;795;49.296;11.348;2023-04-02T04:55:26;95798.31;;;6.91;100.00
30339;BME280;795;49.296;11.348;2023-04-02T04:58:10;95801.31;;;6.88;100.00
30339;BME280;795;49.296;11.348;2023-04-02T05:01:11;95781.25;;;6.76;100.00
30339;BME280;795;49.296;11.348;2023-04-02T05:04:23;95797.59;;;6.81;100.00
30339;BME280;795;49.296;11.348;2023-04-02T05:07:27;95818.31;;;6.87;100.00
30339;BME280;795;49.296;11.348;2023-04-02T05:12:55;95815.16;;;6.91;100.00
30339;BME280;795;49.296;11.348;2023-04-02T05:15:47;95821.50;;;6.90;100.00
30339;BME280;795;49.296;11.348;2023-04-02T05:18:51;95794.00;;;6.56;100.00
30339;BME280;795;49.296;11.348;2023-04-02T05:21:54;95827.50;;;6.92;100.00
30339;BME280;795;49.296;11.348;2023-04-02T05:25:52;95842.84;;;6.90;100.00
30339;BME280;795;49.296;11.348;2023-04-02T05:31:20;95840.00;;;6.92;100.00
30339;BME280;795;49.296;11.348;2023-04-02T05:33:53;95762.59;;;6.42;100.00
30339;BME280;795;49.296;11.348;2023-04-02T05:36:27;95785.97;;;6.48;100.00
30339;BME280;795;49.296;11.348;2023-04-02T05:38:58;95855.69;;;6.95;100.00
30339;BME280;795;49.296;11.348;2023-04-02T05:41:42;95814.84;;;6.60;100.00
30339;BME280;795;49.296;11.348;2023-04-02T05:47:08;95705.69;;;5.91;100.00
30339;BME280;795;49.296;11.348;2023-04-02T05:50:23;95807.00;;;6.59;100.00
30339;BME280;795;49.296;11.348;2023-04-02T05:53:35;95833.09;;;6.73;100.00
30339;BME280;795;49.296;11.348;2023-04-02T05:56:24;95870.88;;;6.94;100.00
30339;BME280;795;49.296;11.348;2023-04-02T05:59:10;95884.03;;;6.96;100.00
30339;BME280;795;49.296;11.348;2023-04-02T06:02:09;95879.22;;;6.99;100.00
30339;BME280;795;49.296;11.348;2023-04-02T06:04:57;95797.16;;;6.51;100.00
30339;BME280;795;49.296;11.348;2023-04-02T06:07:39;95893.25;;;7.01;100.00
30339;BME280;795;49.296;11.348;2023-04-02T06:10:25;95898.09;;;7.06;100.00
30339;BME280;795;49.296;11.348;2023-04-02T06:13:06;95881.38;;;6.96;100.00
30339;BME280;795;49.296;11.348;2023-04-02T06:15:38;95850.94;;;6.81;100.00
30339;BME280;795;49.296;11.348;2023-04-02T06:18:19;95835.06;;;6.71;100.00
30339;BME280;795;49.296;11.348;2023-04-02T06:20:49;95903.97;;;7.09;100.00
30339;BME280;795;49.296;11.348;2023-04-02T06:23:50;95912.13;;;7.08;100.00
30339;BME280;795;49.296;11.348;2023-04-02T06:26:37;95904.94;;;7.08;100.00
30339;BME280;795;49.296;11.348;2023-04-02T06:29:41;95897.75;;;7.01;100.00
30339;BME280;795;49.296;11.348;2023-04-02T06:32:11;95917.50;;;7.16;100.00
30339;BME280;795;49.296;11.348;2023-04-02T06:34:41;95920.00;;;7.17;100.00
30339;BME280;795;49.296;11.348;2023-04-02T06:37:38;95855.97;;;6.84;100.00
30339;BME280;795;49.296;11.348;2023-04-02T06:41:13;95928.38;;;7.22;100.00
30339;BME280;795;49.296;11.348;2023-04-02T06:43:34;95885.88;;;6.95;100.00
30339;BME280;795;49.296;11.348;2023-04-02T06:46:22;95928.59;;;7.29;100.00
30339;BME280;795;49.296;11.348;2023-04-02T06:49:03;95936.72;;;7.27;100.00
30339;BME280;795;49.296;11.348;2023-04-02T06:51:35;95916.16;;;7.12;100.00
30339;BME280;795;49.296;11.348;2023-04-02T06:54:04;95858.09;;;6.72;100.00
30339;BME280;795;49.296;11.348;2023-04-02T06:56:53;95895.38;;;6.98;100.00
30339;BME280;795;49.296;11.348;2023-04-02T06:59:23;95947.59;;;7.34;100.00
30339;BME280;795;49.296;11.348;2023-04-02T07:02:37;95887.25;;;6.99;100.00
30339;BME280;795;49.296;11.348;2023-04-02T07:05:07;95950.97;;;7.44;100.00
30339;BME280;795;49.296;11.348;2023-04-02T07:07:35;95871.97;;;6.84;100.00
30339;BME280;795;49.296;11.348;2023-04-02T07:10:02;95884.56;;;6.99;100.00
30339;BME280;795;49.296;11.348;2023-04-02T07:12:29;95840.09;;;6.74;100.00
30339;BME280;795;49.296;11.348;2023-04-02T07:14:56;95950.63;;;7.39;100.00
30339;BME280;795;49.296;11.348;2023-04-02T07:17:23;95858.31;;;6.87;100.00
30339;BME280;795;49.296;11.348;2023-04-02T07:19:50;95964.06;;;7.55;100.00
30339;BME280;795;49.296;11.348;2023-04-02T07:22:20;95962.22;;;7.56;100.00
30339;BME280;795;49.296;11.348;2023-04-02T07:24:47;95946.94;;;7.32;100.00
30339;BME280;795;49.296;11.348;2023-04-02T07:27:14;95964.38;;;7.52;100.00
30339;BME280;795;49.296;11.348;2023-04-02T07:29:41;95899.81;;;7.15;100.00
30339;BME280;795;49.296;11.348;2023-04-02T07:32:11;95973.94;;;7.63;100.00
30339;BME280;795;49.296;11.348;2023-04-02T07:34:40;95976.63;;;7.63;100.00
30339;BME280;795;49.296;11.348;2023-04-02T07:37:13;95892.63;;;7.15;100.00
30339;BME280;795;49.296;11.348;2023-04-02T07:39:40;95985.00;;;7.76;100.00
30339;BME280;795;49.296;11.348;2023-04-02T07:42:07;95930.25;;;7.30;100.00
30339;BME280;795;49.296;11.348;2023-04-02T07:44:34;95826.69;;;6.58;100.00
30339;BME280;795;49.296;11.348;2023-04-02T07:47:01;95870.56;;;6.97;100.00
30339;BME280;795;49.296;11.348;2023-04-02T07:49:28;95943.00;;;7.52;100.00
30339;BME280;795;49.296;11.348;2023-04-02T07:51:55;95897.34;;;7.29;100.00
30339;BME280;795;49.296;11.348;2023-04-02T07:54:22;95928.81;;;7.52;100.00
30339;BME280;795;49.296;11.348;2023-04-02T07:56:49;95907.06;;;7.30;100.00
30339;BME280;795;49.296;11.348;2023-04-02T07:59:16;96008.28;;;7.99;100.00
30339;BME280;795;49.296;11.348;2023-04-02T08:03:56;95985.31;;;7.73;100.00
30339;BME280;795;49.296;11.348;2023-04-02T08:06:24;96008.09;;;7.93;100.00
30339;BME280;795;49.296;11.348;2023-04-02T08:08:51;95974.84;;;7.79;100.00
30339;BME280;795;49.296;11.348;2023-04-02T08:11:18;96029.69;;;8.08;100.00
30339;BME280;795;49.296;11.348;2023-04-02T08:13:46;96028.50;;;8.02;100.00
30339;BME280;795;49.296;11.348;2023-04-02T08:16:13;95983.66;;;7.72;100.00
30339;BME280;795;49.296;11.348;2023-04-02T08:18:40;95960.72;;;7.53;100.00
30339;BME280;795;49.296;11.348;2023-04-02T08:21:09;96011.56;;;7.77;100.00
30339;BME280;795;49.296;11.348;2023-04-02T08:23:37;96038.69;;;7.98;100.00
30339;BME280;795;49.296;11.348;2023-04-02T08:26:05;96009.03;;;7.76;100.00
30339;BME280;795;49.296;11.348;2023-04-02T08:28:33;96054.72;;;7.98;100.00
30339;BME280;795;49.296;11.348;2023-04-02T08:31:01;96059.38;;;7.88;100.00
30339;BME280;795;49.296;11.348;2023-04-02T08:33:30;96017.09;;;7.84;100.00
30339;BME280;795;49.296;11.348;2023-04-02T08:35:57;96060.66;;;8.18;100.00
30339;BME280;795;49.296;11.348;2023-04-02T08:38:24;96066.03;;;8.26;100.00
30339;BME280;795;49.296;11.348;2023-04-02T08:40:58;96004.84;;;7.65;100.00
30339;BME280;795;49.296;11.348;2023-04-02T08:44:12;96063.25;;;8.02;100.00
30339;BME280;795;49.296;11.348;2023-04-02T08:47:13;96013.81;;;7.56;100.00
30339;BME280;795;49.296;11.348;2023-04-02T08:49:59;95991.38;;;7.41;100.00
30339;BME280;795;49.296;11.348;2023-04-02T08:52:36;96052.88;;;7.91;100.00
30339;BME280;795;49.296;11.348;2023-04-02T08:55:30;96034.28;;;7.81;100.00
30339;BME280;795;49.296;11.348;2023-04-02T08:58:43;96092.69;;;8.10;100.00
30339;BME280;795;49.296;11.348;2023-04-02T09:01:38;96007.59;;;7.48;100.00
30339;BME280;795;49.296;11.348;2023-04-02T09:04:22;96098.59;;;7.80;100.00
30339;BME280;795;49.296;11.348;2023-04-02T09:06:55;96095.56;;;7.75;100.00
30339;BME280;795;49.296;11.348;2023-04-02T09:09:23;96031.53;;;7.31;100.00
30339;BME280;795;49.296;11.348;2023-04-02T09:11:59;96050.22;;;7.31;100.00
30339;BME280;795;49.296;11.348;2023-04-02T09:15:03;96092.22;;;7.47;100.00
30339;BME280;795;49.296;11.348;2023-04-02T09:17:32;96046.13;;;7.19;100.00
30339;BME280;795;49.296;11.348;2023-04-02T09:20:16;96131.44;;;7.72;100.00
30339;BME280;795;49.296;11.348;2023-04-02T09:22:50;96127.03;;;7.89;100.00
30339;BME280;795;49.296;11.348;2023-04-02T09:25:31;96148.22;;;7.90;100.00
30339;BME280;795;49.296;11.348;2023-04-02T09:28:04;96119.50;;;7.92;100.00
30339;BME280;795;49.296;11.348;2023-04-02T09:33:04;96145.28;;;8.27;100.00
30339;BME280;795;49.296;11.348;2023-04-02T09:35:54;96135.91;;;8.31;100.00
30339;BME280;795;49.296;11.348;2023-04-02T09:48:39;96114.78;;;8.20;100.00
30339;BME280;795;49.296;11.348;2023-04-02T09:51:27;96143.84;;;8.49;100.00
30339;BME280;795;49.296;11.348;2023-04-02T09:56:35;96139.91;;;8.69;100.00
30339;BME280;795;49.296;11.348;2023-04-02T10:04:40;96144.94;;;9.04;100.00
30339;BME280;795;49.296;11.348;2023-04-02T10:07:40;96121.31;;;8.67;100.00
30339;BME280;795;49.296;11.348;2023-04-02T10:10:37;96102.72;;;8.50;100.00
30339;BME280;795;49.296;11.348;2023-04-02T10:13:32;96124.19;;;8.90;100.00
30339;BME280;795;49.296;11.348;2023-04-02T10:16:16;96163.34;;;8.99;100.00
30339;BME280;795;49.296;11.348;2023-04-02T10:21:34;96162.78;;;8.63;100.00
30339;BME280;795;49.296;11.348;2023-04-02T10:24:09;96189.56;;;8.72;100.00
30339;BME280;795;49.296;11.348;2023-04-02T10:27:36;96178.53;;;8.66;100.00
30339;BME280;795;49.296;11.348;2023-04-02T10:30:28;96074.53;;;7.80;100.00
30339;BME280;795;49.296;11.348;2023-04-02T10:33:23;96112.78;;;7.80;100.00
30339;BME280;795;49.296;11.348;2023-04-02T10:36:22;96146.63;;;7.72;100.00
30339;BME280;795;49.296;11.348;2023-04-02T10:45:02;96154.25;;;7.92;100.00
30339;BME280;795;49.296;11.348;2023-04-02T10:53:20;96173.84;;;7.75;100.00
30339;BME280;795;49.296;11.348;2023-04-02T10:56:10;96198.28;;;8.06;100.00
30339;BME280;795;49.296;11.348;2023-04-02T10:59:06;96237.06;;;8.10;100.00
30339;BME280;795;49.296;11.348;2023-04-02T11:01:42;96214.47;;;7.79;100.00
30339;BME280;795;49.296;11.348;2023-04-02T11:04:32;96245.56;;;7.80;100.00
30339;BME280;795;49.296;11.348;2023-04-02T11:07:14;96181.00;;;7.41;100.00
30339;BME280;795;49.296;11.348;2023-04-02T11:09:50;96248.72;;;8.01;100.00
30339;BME280;795;49.296;11.348;2023-04-02T11:12:45;96205.03;;;7.41;100.00
30339;BME280;795;49.296;11.348;2023-04-02T11:15:18;96176.34;;;7.08;100.00
30339;BME280;795;49.296;11.348;2023-04-02T11:17:46;96151.84;;;7.12;100.00
30339;BME280;795;49.296;11.348;2023-04-02T11:23:14;96179.47;;;7.90;100.00
30339;BME280;795;49.296;11.348;2023-04-02T11:25:44;96234.81;;;8.23;100.00
30339;BME280;795;49.296;11.348;2023-04-02T11:28:31;96245.94;;;8.36;100.00
30339;BME280;795;49.296;11.348;2023-04-02T11:31:01;96253.66;;;8.39;100.00
30339;BME280;795;49.296;11.348;2023-04-02T11:33:41;96255.09;;;8.59;100.00
30339;BME280;795;49.296;11.348;2023-04-02T11:42:28;96263.19;;;8.76;100.00
30339;BME280;795;49.296;11.348;2023-04-02T11:50:45;96276.03;;;6.99;100.00
30339;BME280;795;49.296;11.348;2023-04-02T11:56:03;96322.06;;;7.28;100.00
30339;BME280;795;49.296;11.348;2023-04-02T11:59:07;96324.75;;;7.46;100.00
30339;BME280;795;49.296;11.348;2023-04-02T12:05:19;96189.13;;;6.69;100.00
30339;BME280;795;49.296;11.348;2023-04-02T12:08:44;96252.84;;;6.99;100.00
30339;BME280;795;49.296;11.348;2023-04-02T12:11:38;96274.06;;;7.18;100.00
30339;BME280;795;49.296;11.348;2023-04-02T12:14:46;96248.28;;;7.09;100.00
30339;BME280;795;49.296;11.348;2023-04-02T12:17:37;96334.34;;;7.74;100.00
30339;BME280;795;49.296;11.348;2023-04-02T12:22:49;96333.50;;;7.91;100.00
30339;BME280;795;49.296;11.348;2023-04-02T12:25:36;96307.75;;;7.90;100.00
30339;BME280;795;49.296;11.348;2023-04-02T12:30:37;96267.81;;;7.63;100.00
30339;BME280;795;49.296;11.348;2023-04-02T12:33:39;96345.34;;;7.71;100.00
30339;BME280;795;49.296;11.348;2023-04-02T12:36:20;96298.72;;;7.48;100.00
30339;BME280;795;49.296;11.348;2023-04-02T12:38:57;96284.72;;;7.54;100.00
30339;BME280;795;49.296;11.348;2023-04-02T12:41:30;96248.72;;;7.58;100.00
30339;BME280;795;49.296;11.348;2023-04-02T12:44:23;96326.47;;;7.90;100.00
30339;BME280;795;49.296;11.348;2023-04-02T12:46:51;96248.13;;;7.28;100.00
30339;BME280;795;49.296;11.348;2023-04-02T12:49:38;96225.91;;;7.10;100.00
30339;BME280;795;49.296;11.348;2023-04-02T12:52:17;96262.22;;;7.03;100.00
30339;BME280;795;49.296;11.348;2023-04-02T12:55:02;96283.47;;;6.95;100.00
30339;BME280;795;49.296;11.348;2023-04-02T12:57:36;96380.78;;;7.28;100.00
30339;BME280;795;49.296;11.348;2023-04-02T13:03:19;96380.09;;;7.53;100.00
30339;BME280;795;49.296;11.348;2023-04-02T13:05:55;96382.19;;;7.50;100.00
30339;BME280;795;49.296;11.348;2023-04-02T13:08:40;96354.13;;;7.46;100.00
30339;BME280;795;49.296;11.348;2023-04-02T13:11:07;96362.75;;;7.57;100.00
30339;BME280;795;49.296;11.348;2023-04-02T13:13:41;96303.59;;;7.34;100.00
30339;BME280;795;49.296;11.348;2023-04-02T13:18:37;96391.78;;;7.70;100.00
30339;BME280;795;49.296;11.348;2023-04-02T13:23:47;96303.44;;;7.36;100.00
30339;BME280;795;49.296;11.348;2023-04-02T13:26:24;96354.72;;;7.40;100.00
30339;BME280;795;49.296;11.348;2023-04-02T13:29:35;96397.94;;;7.53;100.00
30339;BME280;795;49.296;11.348;2023-04-02T13:32:11;96331.38;;;7.24;100.00
30339;BME280;795;49.296;11.348;2023-04-02T13:34:38;96362.34;;;7.52;100.00
30339;BME280;795;49.296;11.348;2023-04-02T13:37:05;96394.50;;;8.13;100.00
30339;BME280;795;49.296;11.348;2023-04-02T13:39:32;96360.59;;;8.14;100.00
30339;BME280;795;49.296;11.348;2023-04-02T13:42:02;96372.00;;;8.24;100.00
30339;BME280;795;49.296;11.348;2023-04-02T13:44:33;96409.47;;;8.41;100.00
30339;BME280;795;49.296;11.348;2023-04-02T13:47:01;96416.03;;;8.47;100.00
30339;BME280;795;49.296;11.348;2023-04-02T13:49:30;96340.41;;;8.19;100.00
30339;BME280;795;49.296;11.348;2023-04-02T13:52:01;96411.31;;;8.23;100.00
30339;BME280;795;49.296;11.348;2023-04-02T13:54:50;96390.47;;;7.91;100.00
30339;BME280;795;49.296;11.348;2023-04-02T13:57:18;96338.47;;;7.33;100.00
30339;BME280;795;49.296;11.348;2023-04-02T13:59:46;96418.19;;;7.28;100.00
30339;BME280;795;49.296;11.348;2023-04-02T14:02:24;96376.56;;;6.71;100.00
30339;BME280;795;49.296;11.348;2023-04-02T14:05:35;96427.25;;;6.71;100.00
30339;BME280;795;49.296;11.348;2023-04-02T14:08:19;96364.53;;;6.01;100.00
30339;BME280;795;49.296;11.348;2023-04-02T14:14:27;96449.63;;;6.51;100.00
30339;BME280;795;49.296;11.348;2023-04-02T14:23:33;96372.31;;;6.41;100.00
30339;BME280;795;49.296;11.348;2023-04-02T14:26:21;96469.63;;;7.20;100.00
30339;BME280;795;49.296;11.348;2023-04-02T14:29:15;96441.69;;;7.15;100.00
30339;BME280;795;49.296;11.348;2023-04-02T14:32:05;96475.25;;;7.17;100.00
30339;BME280;795;49.296;11.348;2023-04-02T14:38:08;96476.13;;;7.45;100.00
30339;BME280;795;49.296;11.348;2023-04-02T14:40:51;96477.66;;;7.48;100.00
30339;BME280;795;49.296;11.348;2023-04-02T14:43:29;96483.19;;;7.09;100.00
30339;BME280;795;49.296;11.348;2023-04-02T14:46:07;96464.97;;;6.86;100.00
30339;BME280;795;49.296;11.348;2023-04-02T14:51:44;96496.19;;;6.76;100.00
30339;BME280;795;49.296;11.348;2023-04-02T14:57:40;96498.25;;;6.91;100.00
30339;BME280;795;49.296;11.348;2023-04-02T15:00:44;96496.03;;;6.87;100.00
30339;BME280;795;49.296;11.348;2023-04-02T15:03:32;96511.38;;;6.56;100.00
30339;BME280;795;49.296;11.348;2023-04-02T15:06:18;96463.41;;;6.08;100.00
30339;BME280;795;49.296;11.348;2023-04-02T15:09:06;96514.44;;;6.03;100.00
30339;BME280;795;49.296;11.348;2023-04-02T15:12:08;96466.66;;;5.53;100.00
30339;BME280;795;49.296;11.348;2023-04-02T15:14:47;96435.28;;;5.07;100.00
30339;BME280;795;49.296;11.348;2023-04-02T15:17:19;96511.38;;;5.49;100.00
30339;BME280;795;49.296;11.348;2023-04-02T15:19:46;96501.28;;;5.53;100.00
30339;BME280;795;49.296;11.348;2023-04-02T15:22:56;96543.09;;;6.11;100.00
30339;BME280;795;49.296;11.348;2023-04-02T15:26:17;96545.06;;;6.19;100.00
30339;BME280;795;49.296;11.348;2023-04-02T15:29:39;96540.84;;;6.07;100.00
30339;BME280;795;49.296;11.348;2023-04-02T15:35:19;96554.22;;;5.76;100.00
30339;BME280;795;49.296;11.348;2023-04-02T15:38:15;96483.13;;;5.18;100.00
30339;BME280;795;49.296;11.348;2023-04-02T15:41:23;96542.28;;;5.71;100.00
30339;BME280;795;49.296;11.348;2023-04-02T15:44:16;96483.44;;;5.34;100.00
30339;BME280;795;49.296;11.348;2023-04-02T15:47:23;96465.38;;;5.28;100.00
30339;BME280;795;49.296;11.348;2023-04-02T15:50:56;96557.63;;;5.58;100.00
30339;BME280;795;49.296;11.348;2023-04-02T15:57:10;96522.88;;;5.19;100.00
30339;BME280;795;49.296;11.348;2023-04-02T16:03:32;96566.63;;;5.26;100.00
30339;BME280;795;49.296;11.348;2023-04-02T16:06:30;96558.44;;;5.18;100.00
30339;BME280;795;49.296;11.348;2023-04-02T16:09:29;96491.19;;;4.77;100.00
30339;BME280;795;49.296;11.348;2023-04-02T16:12:29;96512.34;;;4.88;100.00
30339;BME280;795;49.296;11.348;2023-04-02T16:15:15;96535.47;;;5.17;100.00
30339;BME280;795;49.296;11.348;2023-04-02T16:17:59;96591.09;;;5.51;100.00
30339;BME280;795;49.296;11.348;2023-04-02T16:20:48;96590.06;;;5.32;100.00
30339;BME280;795;49.296;11.348;2023-04-02T16:23:30;96534.69;;;4.76;100.00
30339;BME280;795;49.296;11.348;2023-04-02T16:29:59;96605.72;;;5.05;100.00
30339;BME280;795;49.296;11.348;2023-04-02T16:36:23;96523.53;;;4.40;100.00
30339;BME280;795;49.296;11.348;2023-04-02T17:06:05;96649.38;;;4.82;100.00
30339;BME280;795;49.296;11.348;2023-04-02T17:08:46;96662.47;;;4.74;100.00
30339;BME280;795;49.296;11.348;2023-04-02T17:11:31;96620.16;;;4.50;100.00
30339;BME280;795;49.296;11.348;2023-04-02T17:14:26;96614.16;;;4.37;100.00
30339;BME280;795;49.296;11.348;2023-04-02T17:17:02;96670.28;;;4.55;100.00
30339;BME280;795;49.296;11.348;2023-04-02T17:19:32;96681.66;;;4.46;100.00
30339;BME280;795;49.296;11.348;2023-04-02T17:22:03;96683.34;;;4.47;100.00
30339;BME280;795;49.296;11.348;2023-04-02T17:27:40;96688.81;;;4.45;100.00
30339;BME280;795;49.296;11.348;2023-04-02T17:30:42;96687.97;;;4.45;100.00
30339;BME280;795;49.296;11.348;2023-04-02T17:33:17;96721.53;;;4.46;100.00
30339;BME280;795;49.296;11.348;2023-04-02T17:38:43;96711.06;;;4.33;100.00
30339;BME280;795;49.296;11.348;2023-04-02T17:41:28;96700.44;;;4.33;100.00